Time;durP1;ratioP1;P1;durP2;ratioP2;P2;SDS_P1;SDS_P2;PMS_P1;PMS_P2;Temp;Humidity;BMP_temperature;BMP_pressure;BME280_temperature;BME280_humidity;BME280_pressure;Samples;Min_cycle;Max_cycle;Signal;HPM_P1;HPM_P2
2022/07/10 00:00:31;;;;;;;11.68;9.43;;;;;;;22.12;100.00;99817.81;5053061;28;20749;-75
2022/07/10 00:02:59;;;;;;;10.55;9.48;;;;;;;21.86;100.00;99774.78;5053116;28;20203;-76
2022/07/10 00:05:28;;;;;;;9.85;8.95;;;;;;;22.04;100.00;99813.75;5034514;28;20200;-74
2022/07/10 00:07:55;;;;;;;10.10;9.10;;;;;;;22.05;100.00;99808.41;5053396;28;20678;-75
2022/07/10 00:10:22;;;;;;;11.43;8.77;;;;;;;22.30;100.00;99810.13;5051623;28;20215;-76
2022/07/10 00:12:50;;;;;;;9.85;8.82;;;;;;;22.24;100.00;99806.81;5053040;28;20578;-74
2022/07/10 00:15:18;;;;;;;10.00;9.00;;;;;;;22.20;100.00;99805.22;5054500;28;20188;-75
2022/07/10 00:17:45;;;;;;;9.63;8.70;;;;;;;22.17;100.00;99789.47;5018209;28;20207;-76
2022/07/10 00:20:13;;;;;;;8.73;8.02;;;;;;;22.15;100.00;99801.03;5053059;28;20196;-75
2022/07/10 00:22:42;;;;;;;13.13;8.95;;;;;;;21.86;100.00;99765.09;5053150;28;20227;-75
2022/07/10 00:25:13;;;;;;;10.98;9.90;;;;;;;22.16;100.00;99819.44;5053233;28;20226;-75
2022/07/10 00:27:40;;;;;;;9.82;8.88;;;;;;;22.18;100.00;99816.75;5047814;28;20204;-76
2022/07/10 00:30:09;;;;;;;10.02;9.13;;;;;;;22.31;100.00;99802.19;5052421;28;20195;-76
2022/07/10 00:32:36;;;;;;;9.95;8.55;;;;;;;22.18;100.00;99780.66;5052512;28;20218;-75
2022/07/10 00:35:03;;;;;;;10.23;9.23;;;;;;;22.30;100.00;99810.13;5052474;28;20198;-76
2022/07/10 00:37:30;;;;;;;9.77;8.88;;;;;;;22.37;100.00;99811.63;5052364;28;20204;-75
2022/07/10 00:39:59;;;;;;;8.95;8.15;;;;;;;22.14;100.00;99788.72;5052112;28;20204;-76
2022/07/10 00:42:27;;;;;;;11.60;10.45;;;;;;;22.11;100.00;99788.84;5052293;28;20670;-74
2022/07/10 00:44:54;;;;;;;13.93;9.65;;;;;;;22.09;100.00;99802.09;5051831;28;20199;-75
2022/07/10 00:47:21;;;;;;;12.85;9.45;;;;;;;21.97;100.00;99791.13;5052216;28;20207;-76
2022/07/10 00:49:47;;;;;;;9.57;8.57;;;;;;;22.03;100.00;99791.78;5051870;28;20203;-76
2022/07/10 00:52:16;;;;;;;10.35;9.35;;;;;;;22.05;100.00;99799.63;5051232;28;20200;-75
2022/07/10 00:54:50;;;;;;;9.88;8.80;;;;;;;21.93;100.00;99795.66;5051821;28;20231;-75
2022/07/10 00:57:19;;;;;;;11.30;8.70;;;;;;;22.11;100.00;99784.44;5051982;28;20628;-76
2022/07/10 00:59:47;;;;;;;11.45;9.05;;;;;;;22.01;100.00;99793.59;5051540;28;20265;-76
2022/07/10 01:02:15;;;;;;;9.60;8.45;;;;;;;22.02;100.00;99781.25;5052266;28;20231;-76
2022/07/10 01:04:42;;;;;;;9.05;8.23;;;;;;;22.15;100.00;99783.38;5051435;28;20602;-76
2022/07/10 01:07:09;;;;;;;9.70;8.73;;;;;;;21.79;100.00;99768.88;5052188;28;20199;-75
2022/07/10 01:09:36;;;;;;;9.90;9.00;;;;;;;21.89;100.00;99778.16;5051294;28;20679;-76
2022/07/10 01:12:04;;;;;;;11.00;9.98;;;;;;;21.83;100.00;99775.72;5051600;28;20341;-76
2022/07/10 01:14:32;;;;;;;10.25;8.63;;;;;;;21.69;100.00;99767.44;5051431;28;20691;-76
2022/07/10 01:16:59;;;;;;;16.45;8.70;;;;;;;21.75;100.00;99759.31;5051200;28;20192;-75
2022/07/10 01:19:26;;;;;;;9.63;8.75;;;;;;;21.64;100.00;99764.13;5050933;28;20204;-76
2022/07/10 01:21:54;;;;;;;10.18;9.18;;;;;;;21.69;100.00;99760.38;5050473;28;20224;-77
2022/07/10 01:24:21;;;;;;;9.20;8.30;;;;;;;21.61;100.00;99761.59;5031683;28;20211;-74
2022/07/10 01:26:49;;;;;;;11.25;9.20;;;;;;;21.76;100.00;99767.16;5050706;28;20199;-74
2022/07/10 01:29:15;;;;;;;9.70;8.80;;;;;;;21.68;100.00;99769.25;5050571;28;20203;-74
2022/07/10 01:31:42;;;;;;;10.02;8.57;;;;;;;21.64;100.00;99743.00;5051041;28;20616;-74
2022/07/10 01:34:10;;;;;;;9.98;8.98;;;;;;;21.79;100.00;99762.72;5051586;28;20195;-75
2022/07/10 01:36:37;;;;;;;9.63;8.73;;;;;;;21.61;100.00;99761.59;5051196;28;20192;-75
2022/07/10 01:39:07;;;;;;;9.82;8.80;;;;;;;21.72;100.00;99764.72;5051082;28;20195;-74
2022/07/10 01:41:33;;;;;;;8.57;7.68;;;;;;;21.25;100.00;99743.47;5050566;28;20223;-75
2022/07/10 01:44:00;;;;;;;11.43;9.20;;;;;;;21.26;100.00;99760.13;5051105;28;20218;-75
2022/07/10 01:46:27;;;;;;;11.43;8.82;;;;;;;21.29;100.00;99764.47;5051283;28;20196;-76
2022/07/10 01:48:54;;;;;;;9.95;8.80;;;;;;;21.54;100.00;99770.63;5050846;28;20261;-74
2022/07/10 01:51:21;;;;;;;10.07;9.18;;;;;;;21.36;100.00;99745.75;5050688;28;20707;-74
2022/07/10 01:53:48;;;;;;;10.40;8.93;;;;;;;21.48;100.00;99773.47;5050360;28;20613;-75
2022/07/10 01:56:17;;;;;;;10.18;8.90;;;;;;;21.38;100.00;99769.41;5050374;28;20199;-74
2022/07/10 01:58:44;;;;;;;11.40;9.35;;;;;;;21.32;100.00;99780.19;5051119;28;20199;-75
2022/07/10 02:01:11;;;;;;;10.63;9.63;;;;;;;21.09;100.00;99768.59;5050928;28;20222;-76
2022/07/10 02:06:23;;;;;;;14.32;9.00;;;;;;;21.48;100.00;99786.66;5020969;28;20249;-73
2022/07/10 02:08:49;;;;;;;9.77;7.97;;;;;;;21.43;100.00;99764.88;5050784;28;20203;-75
2022/07/10 02:11:18;;;;;;;9.52;8.38;;;;;;;21.50;100.00;99754.06;5015993;28;20222;-75
2022/07/10 02:13:45;;;;;;;8.70;7.75;;;;;;;21.46;100.00;99741.88;5050724;28;20195;-75
2022/07/10 02:16:12;;;;;;;10.85;8.10;;;;;;;21.43;100.00;99760.44;5050509;28;20617;-75
2022/07/10 02:18:39;;;;;;;9.10;8.30;;;;;;;20.92;100.00;99691.84;5050513;28;20212;-75
2022/07/10 02:21:07;;;;;;;10.73;8.20;;;;;;;21.53;100.00;99768.91;5051004;28;20207;-75
2022/07/10 02:23:35;;;;;;;8.77;7.88;;;;;;;21.29;100.00;99759.19;5016144;28;20297;-75
2022/07/10 02:26:01;;;;;;;7.80;7.00;;;;;;;21.39;100.00;99761.47;5050476;28;20227;-75
2022/07/10 02:28:30;;;;;;;9.10;7.60;;;;;;;21.42;100.00;99740.25;5050818;28;20191;-75
2022/07/10 02:30:57;;;;;;;12.27;8.75;;;;;;;21.35;100.00;99758.97;5050773;28;20203;-75
2022/07/10 02:33:24;;;;;;;9.45;7.68;;;;;;;21.30;100.00;99755.66;5051734;28;20583;-76
2022/07/10 02:35:51;;;;;;;15.80;7.35;;;;;;;21.46;100.00;99759.47;5054797;28;20203;-75
2022/07/10 02:38:18;;;;;;;13.48;7.85;;;;;;;21.23;100.00;99747.91;5054545;28;20222;-75
2022/07/10 02:40:45;;;;;;;7.75;6.95;;;;;;;21.41;100.00;99741.16;5054483;28;20203;-76
2022/07/10 02:43:11;;;;;;;11.88;7.65;;;;;;;21.31;100.00;99754.72;5054158;28;20223;-75
2022/07/10 02:45:40;;;;;;;11.13;7.95;;;;;;;21.34;100.00;99760.75;5054393;28;20211;-76
2022/07/10 02:48:07;;;;;;;8.80;7.90;;;;;;;21.49;100.00;99772.56;5054006;28;20211;-75
2022/07/10 02:50:33;;;;;;;8.35;7.45;;;;;;;21.30;100.00;99743.28;5019102;28;20226;-76
2022/07/10 02:53:00;;;;;;;8.52;7.72;;;;;;;21.41;100.00;99766.66;5054449;28;20243;-76
2022/07/10 02:55:27;;;;;;;8.75;7.63;;;;;;;21.44;100.00;99758.69;5019306;28;20200;-75
2022/07/10 02:57:54;;;;;;;6.90;6.40;;;;;;;21.51;100.00;99754.91;5054303;28;20289;-76
2022/07/10 03:00:21;;;;;;;11.00;7.63;;;;;;;21.52;100.00;99752.19;5054337;28;20206;-75
2022/07/10 03:02:49;;;;;;;11.98;7.45;;;;;;;21.47;100.00;99758.56;5054136;28;20238;-75
2022/07/10 03:05:16;;;;;;;7.82;6.95;;;;;;;21.57;100.00;99760.84;5053281;28;20199;-76
2022/07/10 03:07:43;;;;;;;10.05;7.78;;;;;;;21.61;100.00;99745.75;5054054;28;20202;-76
2022/07/10 03:10:10;;;;;;;11.30;7.32;;;;;;;21.69;100.00;99762.16;5054554;28;20205;-76
2022/07/10 03:12:37;;;;;;;8.68;7.82;;;;;;;21.67;100.00;99756.94;5053758;28;20701;-75
2022/07/10 03:15:05;;;;;;;10.25;6.75;;;;;;;21.67;100.00;99766.66;5054236;28;20674;-75
2022/07/10 03:17:32;;;;;;;7.90;7.00;;;;;;;21.52;100.00;99735.50;5034759;28;21276;-75
2022/07/10 03:20:00;;;;;;;8.25;6.88;;;;;;;21.59;100.00;99768.69;5036290;28;20215;-75
2022/07/10 03:22:28;;;;;;;7.43;6.80;;;;;;;21.74;100.00;99768.16;5015095;28;20255;-75
2022/07/10 03:24:55;;;;;;;7.60;6.72;;;;;;;21.65;100.00;99768.50;5034043;28;20203;-74
2022/07/10 03:27:21;;;;;;;6.90;6.30;;;;;;;21.84;100.00;99774.81;5043549;28;20549;-76
2022/07/10 03:29:48;;;;;;;6.95;6.35;;;;;;;21.87;100.00;99773.88;5053284;28;20195;-75
2022/07/10 03:32:15;;;;;;;9.50;6.90;;;;;;;21.54;100.00;99707.31;5018568;28;20238;-76
2022/07/10 03:34:42;;;;;;;7.70;6.70;;;;;;;22.01;100.00;99764.53;5053089;28;20652;-76
2022/07/10 03:37:10;;;;;;;6.80;6.28;;;;;;;22.43;100.00;99764.72;5053116;28;20663;-75
2022/07/10 03:39:37;;;;;;;7.10;6.45;;;;;;;22.37;100.00;99767.59;5053470;28;20207;-76
2022/07/10 03:42:05;;;;;;;7.53;5.80;;;;;;;22.69;100.00;99746.09;5053085;28;20231;-75
2022/07/10 03:44:32;;;;;;;6.10;5.65;;;;;;;22.46;100.00;99761.09;5034019;28;20205;-75
2022/07/10 03:46:59;;;;;;;6.93;6.28;;;;;;;22.40;100.00;99766.63;5014175;28;20685;-76
2022/07/10 03:49:26;;;;;;;7.15;6.20;;;;;;;22.20;100.00;99762.94;5043184;28;20199;-74
2022/07/10 03:51:53;;;;;;;6.78;6.28;;;;;;;22.11;100.00;99759.81;5020663;28;20191;-75
2022/07/10 03:54:22;;;;;;;6.50;6.00;;;;;;;22.22;100.00;99754.97;5052916;28;20247;-75
2022/07/10 03:59:33;;;;;;;7.70;6.05;;;;;;;22.51;100.00;99754.72;5053215;28;20199;-73
2022/07/10 04:02:00;;;;;;;5.80;5.40;;;;;;;23.32;100.00;99756.75;5017784;28;20222;-75
2022/07/10 04:04:27;;;;;;;7.15;5.65;;;;;;;24.15;100.00;99753.13;5053169;28;20202;-75
2022/07/10 04:06:54;;;;;;;6.93;5.75;;;;;;;24.13;100.00;99771.75;5052833;28;20195;-74
2022/07/10 04:09:22;;;;;;;7.45;5.47;;;;;;;24.63;100.00;99774.69;5052909;28;20746;-74
2022/07/10 04:11:49;;;;;;;11.23;5.40;;;;;;;25.42;97.17;99776.13;5052934;28;20199;-73
2022/07/10 04:14:16;;;;;;;4.97;4.68;;;;;;;26.08;90.52;99777.09;5052914;28;20894;-75
2022/07/10 04:16:43;;;;;;;5.05;4.68;;;;;;;26.62;86.07;99759.97;5051813;28;20695;-74
2022/07/10 04:19:10;;;;;;;7.93;4.97;;;;;;;26.72;85.10;99770.13;5051423;28;20211;-74
2022/07/10 04:21:37;;;;;;;5.30;4.40;;;;;;;27.34;79.40;99779.84;5052535;28;20610;-74
2022/07/10 04:24:04;;;;;;;4.50;4.20;;;;;;;27.25;81.10;99783.06;5052122;28;20219;-74
2022/07/10 04:26:32;;;;;;;4.60;4.20;;;;;;;27.88;75.90;99768.59;5052404;28;20261;-74
2022/07/10 04:28:59;;;;;;;5.50;4.35;;;;;;;28.24;70.77;99770.84;5051393;28;20195;-74
2022/07/10 04:31:25;;;;;;;4.65;4.22;;;;;;;28.57;70.08;99773.19;5051712;28;20207;-74
2022/07/10 04:33:52;;;;;;;4.35;3.95;;;;;;;29.11;68.22;99773.28;5052516;28;20206;-74
2022/07/10 04:36:19;;;;;;;6.03;4.32;;;;;;;29.56;64.78;99780.91;5052198;28;20701;-74
2022/07/10 04:38:46;;;;;;;5.75;3.88;;;;;;;29.65;62.37;99784.75;5051951;28;20210;-75
2022/07/10 04:41:13;;;;;;;4.30;4.00;;;;;;;29.78;60.81;99762.44;5052072;28;20195;-74
2022/07/10 04:43:41;;;;;;;4.18;3.80;;;;;;;28.02;69.30;99771.28;5052061;28;20230;-75
2022/07/10 04:46:08;;;;;;;4.88;4.47;;;;;;;28.06;70.16;99750.63;5052304;28;20607;-75
2022/07/10 04:48:35;;;;;;;4.30;4.10;;;;;;;28.46;68.46;99786.34;5051571;28;20675;-75
2022/07/10 04:51:01;;;;;;;4.70;4.30;;;;;;;28.77;66.38;99785.28;5032989;28;20203;-75
2022/07/10 04:53:28;;;;;;;4.28;3.88;;;;;;;29.18;65.40;99783.41;5051520;28;20310;-75
2022/07/10 04:55:55;;;;;;;5.18;4.63;;;;;;;28.94;64.77;99796.56;5032567;28;20214;-73
2022/07/10 04:58:22;;;;;;;6.35;4.20;;;;;;;28.92;63.88;99800.31;5040794;28;20610;-74
2022/07/10 05:00:50;;;;;;;4.60;4.20;;;;;;;28.96;63.95;99797.34;5051896;28;20207;-75
2022/07/10 05:03:17;;;;;;;4.47;4.18;;;;;;;28.57;63.81;99790.03;5050754;28;20769;-74
2022/07/10 05:05:44;;;;;;;8.77;4.30;;;;;;;28.24;65.98;99805.50;5051350;28;20207;-75
2022/07/10 05:08:11;;;;;;;5.40;4.15;;;;;;;27.92;67.16;99804.78;5051586;28;20195;-72
2022/07/10 05:10:39;;;;;;;4.70;4.30;;;;;;;27.73;69.36;99800.63;5051753;28;20214;-74
2022/07/10 05:13:06;;;;;;;4.93;4.53;;;;;;;27.30;71.18;99789.81;5051646;28;20203;-73
2022/07/10 05:15:33;;;;;;;4.60;4.30;;;;;;;27.09;73.79;99805.22;5051823;28;20199;-74
2022/07/10 05:18:01;;;;;;;6.32;4.35;;;;;;;26.58;79.53;99800.13;5051060;28;20581;-74
2022/07/10 05:20:28;;;;;;;5.35;4.85;;;;;;;26.49;80.42;99808.63;5050421;28;20623;-74
2022/07/10 05:22:55;;;;;;;5.45;4.95;;;;;;;26.38;81.64;99790.59;5051297;28;20219;-75
2022/07/10 05:25:26;;;;;;;5.38;4.88;;;;;;;26.45;80.60;99807.06;5051428;28;20269;-74
2022/07/10 05:27:53;;;;;;;7.07;5.30;;;;;;;26.16;84.05;99797.97;5050944;28;20257;-75
2022/07/10 05:30:19;;;;;;;7.57;4.82;;;;;;;26.42;83.83;99810.75;5050769;28;20581;-74
2022/07/10 05:32:47;;;;;;;11.15;4.80;;;;;;;26.52;81.95;99803.13;5051515;28;20203;-74
2022/07/10 05:35:16;;;;;;;8.75;4.57;;;;;;;26.38;86.00;99806.53;5051350;28;20203;-74
2022/07/10 05:37:43;;;;;;;4.40;4.03;;;;;;;26.55;81.75;99802.97;5050400;28;20203;-74
2022/07/10 05:40:11;;;;;;;4.57;4.18;;;;;;;26.62;81.76;99791.03;5050052;28;20187;-73
2022/07/10 05:42:37;;;;;;;5.20;4.70;;;;;;;26.70;80.54;99803.91;5050342;28;20254;-74
2022/07/10 05:45:05;;;;;;;5.25;4.70;;;;;;;26.52;82.41;99808.44;5050504;28;20206;-74
2022/07/10 05:47:33;;;;;;;5.10;4.60;;;;;;;26.17;86.13;99817.44;5015615;28;20196;-74
2022/07/10 05:49:59;;;;;;;5.47;4.95;;;;;;;26.18;85.89;99808.56;5050462;28;20569;-73
2022/07/10 05:52:28;;;;;;;5.88;5.22;;;;;;;26.42;84.56;99797.47;5051082;28;20207;-74
2022/07/10 05:54:56;;;;;;;6.57;4.95;;;;;;;26.43;85.20;99808.97;5049140;28;21727;-75
2022/07/10 05:57:23;;;;;;;9.68;4.93;;;;;;;26.46;83.12;99803.47;5050607;28;20208;-75
2022/07/10 05:59:50;;;;;;;4.85;4.30;;;;;;;26.39;81.83;99792.31;5050114;28;20675;-75
2022/07/10 06:02:17;;;;;;;8.18;4.50;;;;;;;25.73;85.07;99743.56;5050202;28;20207;-75
2022/07/10 06:04:44;;;;;;;5.10;4.70;;;;;;;26.06;86.47;99808.25;5037514;28;20262;-74
2022/07/10 06:07:10;;;;;;;7.15;5.57;;;;;;;25.83;87.44;99816.53;5049188;28;20199;-75
2022/07/10 06:09:39;;;;;;;35.03;23.55;;;;;;;25.70;89.00;99823.41;5050199;28;20195;-74
2022/07/10 06:12:06;;;;;;;6.63;5.68;;;;;;;25.64;90.23;99818.44;5046701;28;20212;-74
2022/07/10 06:14:33;;;;;;;5.13;4.75;;;;;;;25.70;89.10;99812.78;5041038;28;20203;-74
2022/07/10 06:17:00;;;;;;;6.32;4.85;;;;;;;25.62;90.14;99801.69;5050628;28;20247;-74
2022/07/10 06:19:26;;;;;;;10.40;4.78;;;;;;;25.83;90.74;99813.00;5050572;28;20207;-75
2022/07/10 06:24:34;;;;;;;5.68;5.15;;;;;;;25.73;90.55;99786.06;5014885;28;20226;-73
2022/07/10 06:27:02;;;;;;;8.32;4.53;;;;;;;25.81;90.27;99797.16;5044572;28;20211;-75
2022/07/10 06:29:32;;;;;;;5.38;4.80;;;;;;;25.71;91.99;99795.94;5041022;28;20211;-75
2022/07/10 06:31:59;;;;;;;5.70;5.10;;;;;;;25.79;92.13;99801.69;5038372;28;20208;-75
2022/07/10 06:34:25;;;;;;;5.47;4.75;;;;;;;25.76;92.14;99806.28;5035960;28;20208;-75
2022/07/10 06:36:52;;;;;;;5.55;4.88;;;;;;;25.60;92.49;99800.94;5038486;28;20211;-74
2022/07/10 06:39:19;;;;;;;4.97;4.57;;;;;;;25.94;92.02;99790.25;5027550;28;20219;-74
2022/07/10 06:41:46;;;;;;;4.88;4.47;;;;;;;26.20;90.29;99807.53;5042592;28;20664;-75
2022/07/10 06:44:14;;;;;;;4.93;4.32;;;;;;;25.86;88.49;99797.81;5045697;28;20654;-73
2022/07/10 06:46:41;;;;;;;5.00;4.50;;;;;;;25.96;87.26;99803.47;5046828;28;20214;-73
2022/07/10 06:49:08;;;;;;;5.20;4.47;;;;;;;25.34;88.90;99807.50;5045861;28;20219;-76
2022/07/10 06:51:35;;;;;;;5.93;4.90;;;;;;;25.50;91.45;99810.28;5046290;28;20680;-73
2022/07/10 06:54:02;;;;;;;10.07;6.35;;;;;;;25.67;90.01;99802.34;5046395;28;20235;-73
2022/07/10 06:56:29;;;;;;;14.30;8.43;;;;;;;25.75;90.49;99808.13;5046565;28;20219;-74
2022/07/10 06:58:56;;;;;;;5.07;4.72;;;;;;;26.01;87.59;99812.91;5046659;28;20212;-73
2022/07/10 07:01:24;;;;;;;5.40;5.00;;;;;;;26.11;86.64;99808.84;5046444;28;20196;-73
2022/07/10 07:03:52;;;;;;;8.85;4.72;;;;;;;25.90;85.69;99809.97;5018578;28;20250;-73
2022/07/10 07:06:18;;;;;;;5.40;4.90;;;;;;;26.09;83.32;99776.19;5041257;28;20207;-74
2022/07/10 07:08:45;;;;;;;5.70;5.18;;;;;;;26.26;80.13;99806.34;5046611;28;20238;-73
2022/07/10 07:11:12;;;;;;;4.07;3.78;;;;;;;26.13;77.67;99812.28;5046744;28;20215;-73
2022/07/10 07:13:39;;;;;;;4.32;4.03;;;;;;;26.26;75.04;99803.66;5046110;28;20981;-73
2022/07/10 07:16:09;;;;;;;4.00;3.70;;;;;;;26.20;74.88;99809.31;5046451;28;20212;-73
2022/07/10 07:18:47;;;;;;;4.60;4.30;;;;;;;26.42;77.39;99801.91;5046265;28;20294;-76
2022/07/10 07:23:58;;;;;;;4.32;4.03;;;;;;;26.03;75.34;99787.13;5049750;28;20231;-74
2022/07/10 07:26:25;;;;;;;38.20;16.35;;;;;;;25.92;77.32;99796.59;5049771;28;20207;-75
2022/07/10 07:28:52;;;;;;;29.95;19.65;;;;;;;26.14;77.95;99787.44;5050228;28;20214;-74
2022/07/10 07:31:19;;;;;;;4.03;3.72;;;;;;;26.30;74.45;99803.44;5030737;28;20203;-75
2022/07/10 07:33:48;;;;;;;4.40;4.05;;;;;;;26.40;73.75;99798.47;5049817;28;20273;-76
2022/07/10 07:36:15;;;;;;;3.97;3.78;;;;;;;26.01;75.17;99796.97;5030402;28;20208;-74
2022/07/10 07:38:42;;;;;;;5.80;4.28;;;;;;;25.86;74.80;99791.63;5049367;28;20239;-74
2022/07/10 07:41:10;;;;;;;4.68;4.25;;;;;;;26.05;76.06;99798.53;5014352;28;20203;-75
2022/07/10 07:43:37;;;;;;;10.50;5.15;;;;;;;26.54;73.76;99793.28;5049631;28;20350;-74
2022/07/10 07:46:04;;;;;;;4.78;3.85;;;;;;;26.83;69.55;99794.31;5049140;28;20856;-76
2022/07/10 07:48:31;;;;;;;8.98;5.57;;;;;;;27.09;68.87;99805.22;5049093;28;20215;-74
2022/07/10 07:50:59;;;;;;;4.18;3.72;;;;;;;27.21;67.85;99797.50;5049330;28;20232;-75
2022/07/10 07:53:26;;;;;;;5.00;4.60;;;;;;;26.92;68.29;99801.81;5049660;28;21085;-74
2022/07/10 07:55:53;;;;;;;6.45;4.13;;;;;;;27.16;67.63;99789.75;5048863;28;20218;-74
2022/07/10 07:58:20;;;;;;;4.80;3.75;;;;;;;27.39;64.92;99781.31;5013568;28;20211;-74
2022/07/10 08:00:47;;;;;;;5.35;3.50;;;;;;;27.09;64.26;99799.03;5012109;28;20207;-75
2022/07/10 08:03:14;;;;;;;3.70;3.40;;;;;;;27.39;62.10;99786.63;5045724;28;20727;-79
2022/07/10 08:05:41;;;;;;;4.25;3.70;;;;;;;27.93;60.52;99803.81;5038798;28;20211;-78
2022/07/10 08:08:09;;;;;;;3.60;3.40;;;;;;;28.11;60.04;99803.69;5030232;28;20207;-78
2022/07/10 08:10:37;;;;;;;4.18;3.83;;;;;;;28.73;61.24;99799.75;5049440;28;20203;-74
2022/07/10 08:13:04;;;;;;;3.55;3.00;;;;;;;29.45;52.80;99804.81;5048228;28;20195;-77
2022/07/10 08:15:34;;;;;;;3.42;3.08;;;;;;;29.77;50.98;99797.28;5048761;28;20207;-74
2022/07/10 08:18:03;;;;;;;3.63;3.08;;;;;;;29.50;50.79;99803.53;5049135;28;20787;-78
2022/07/10 08:20:31;;;;;;;3.80;3.30;;;;;;;29.78;49.99;99807.88;5048731;28;20203;-76
2022/07/10 08:22:57;;;;;;;3.45;3.15;;;;;;;29.35;49.91;99793.03;5048919;28;20207;-76
2022/07/10 08:25:26;;;;;;;3.30;3.10;;;;;;;29.77;48.85;99799.94;5048364;28;20735;-76
2022/07/10 08:27:53;;;;;;;3.28;2.58;;;;;;;29.83;47.80;99781.66;5030055;28;20215;-76
2022/07/10 08:30:20;;;;;;;2.88;2.78;;;;;;;29.51;48.48;99791.88;5049056;28;20230;-75
2022/07/10 08:32:47;;;;;;;3.60;3.30;;;;;;;30.22;49.36;99793.25;5048394;28;20211;-75
2022/07/10 08:35:14;;;;;;;3.30;3.10;;;;;;;29.39;51.01;99794.53;5048392;28;20246;-76
2022/07/10 08:37:41;;;;;;;3.30;3.10;;;;;;;29.22;51.85;99786.75;5048955;28;20207;-76
2022/07/10 08:40:11;;;;;;;5.65;3.45;;;;;;;29.27;50.87;99782.84;5013423;28;20219;-76
2022/07/10 08:42:40;;;;;;;3.30;3.10;;;;;;;29.05;51.67;99719.28;5048989;28;20681;-76
2022/07/10 08:45:07;;;;;;;3.95;3.35;;;;;;;29.51;49.97;99793.69;5048658;28;20234;-76
2022/07/10 08:47:36;;;;;;;5.32;3.13;;;;;;;30.02;47.91;99790.16;5048510;28;20203;-75
2022/07/10 08:50:03;;;;;;;3.60;3.30;;;;;;;30.26;47.04;99770.66;5048437;28;20212;-74
2022/07/10 08:52:34;;;;;;;3.78;3.33;;;;;;;29.17;50.50;99762.16;5048237;28;20214;-77
2022/07/10 08:55:01;;;;;;;3.45;3.10;;;;;;;29.27;48.43;99784.66;5048390;28;20297;-73
2022/07/10 08:57:31;;;;;;;4.50;4.20;;;;;;;29.18;49.28;99769.22;5047984;28;20207;-75
2022/07/10 08:59:59;;;;;;;3.90;3.22;;;;;;;28.97;51.30;99776.81;5048481;28;20208;-76
2022/07/10 09:02:26;;;;;;;3.10;2.90;;;;;;;28.89;52.55;99777.34;5048183;28;20214;-75
2022/07/10 09:04:53;;;;;;;3.40;3.10;;;;;;;29.31;52.13;99786.19;5029115;28;20246;-75
2022/07/10 09:07:21;;;;;;;8.75;3.63;;;;;;;29.57;51.96;99782.63;5047872;28;20292;-76
2022/07/10 09:09:56;;;;;;;3.58;3.30;;;;;;;30.26;50.21;99778.69;5048172;28;20214;-74
2022/07/10 09:12:23;;;;;;;5.78;3.72;;;;;;;30.52;48.99;99777.72;5047787;28;20210;-76
2022/07/10 09:14:50;;;;;;;3.95;3.05;;;;;;;30.79;47.48;99786.44;5047937;28;20217;-76
2022/07/10 09:17:19;;;;;;;3.33;3.03;;;;;;;31.13;46.37;99775.94;5047895;28;20211;-76
2022/07/10 09:19:46;;;;;;;4.00;3.25;;;;;;;31.64;45.98;99788.13;5048085;28;20214;-74
2022/07/10 09:22:14;;;;;;;4.22;3.17;;;;;;;30.90;46.13;99772.25;5012214;28;20207;-75
2022/07/10 09:24:44;;;;;;;3.85;3.00;;;;;;;30.75;47.74;99758.16;5047006;28;20756;-75
2022/07/10 09:27:14;;;;;;;3.38;3.08;;;;;;;31.01;46.06;99777.72;5047479;28;20195;-74
2022/07/10 09:29:54;;;;;;;3.50;3.22;;;;;;;31.00;45.73;99757.25;5028796;28;20203;-76
2022/07/10 09:32:23;;;;;;;5.82;2.88;;;;;;;31.56;46.27;99777.16;5047355;28;20324;-75
2022/07/10 09:36:04;;;;;;;22.65;16.30;;;;;;;30.80;45.55;99773.91;5047861;28;20215;-76
2022/07/10 09:37:40;;;;;;;5.97;5.05;;;;;;;30.44;48.46;99772.06;5046557;28;20211;-76
2022/07/10 09:40:09;;;;;;;3.10;2.80;;;;;;;30.78;44.67;99760.66;5046442;28;20199;-74
2022/07/10 09:42:37;;;;;;;5.10;2.53;;;;;;;31.56;44.37;99770.91;5046447;28;20199;-76
2022/07/10 09:45:16;;;;;;;2.90;2.70;;;;;;;31.12;46.30;99767.06;5046476;28;20578;-75
2022/07/10 09:47:45;;;;;;;3.03;2.83;;;;;;;30.82;48.82;99764.78;5047219;28;20199;-76
2022/07/10 09:50:24;;;;;;;3.78;2.70;;;;;;;31.18;44.87;99752.38;5047626;28;20230;-75
2022/07/10 09:52:53;;;;;;;4.53;3.00;;;;;;;30.52;48.50;99750.97;5033780;28;20242;-75
2022/07/10 09:55:22;;;;;;;3.20;2.90;;;;;;;30.92;46.33;99762.31;5047205;28;20243;-75
2022/07/10 09:57:55;;;;;;;4.28;2.97;;;;;;;30.82;47.54;99756.75;5047463;28;20211;-75
2022/07/10 10:00:25;;;;;;;4.78;3.03;;;;;;;30.94;47.90;99757.69;5046873;28;20666;-77
2022/07/10 10:02:56;;;;;;;2.78;2.58;;;;;;;29.53;48.44;99744.56;5046813;28;20651;-75
2022/07/10 10:05:28;;;;;;;3.35;3.05;;;;;;;30.83;47.28;99755.78;5043781;28;20230;-75
2022/07/10 10:07:56;;;;;;;4.13;2.85;;;;;;;30.35;47.76;99744.13;5047069;28;20203;-76
2022/07/10 10:10:23;;;;;;;3.17;2.97;;;;;;;29.93;49.07;99747.19;5005141;28;20234;-73
2022/07/10 10:12:59;;;;;;;3.42;3.00;;;;;;;30.04;49.40;99744.59;5046666;28;20216;-72
2022/07/10 10:15:27;;;;;;;3.00;2.80;;;;;;;30.06;48.72;99739.13;5047061;28;20606;-76
2022/07/10 10:17:56;;;;;;;3.83;2.85;;;;;;;29.72;50.08;99744.13;5046780;28;20211;-73
2022/07/10 10:20:38;;;;;;;3.25;3.05;;;;;;;30.03;50.27;99737.53;5047142;28;20226;-74
2022/07/10 10:23:07;;;;;;;4.10;2.92;;;;;;;30.22;48.32;99742.44;5046905;28;20296;-75
2022/07/10 10:25:34;;;;;;;2.88;2.67;;;;;;;30.39;49.11;99718.00;5045694;28;20227;-76
2022/07/10 10:28:03;;;;;;;2.95;2.75;;;;;;;30.59;46.58;99733.50;5045864;28;20199;-74
2022/07/10 10:30:31;;;;;;;3.40;3.10;;;;;;;30.02;47.72;99717.97;5046161;28;20314;-74
2022/07/10 10:33:00;;;;;;;8.70;6.30;;;;;;;30.12;47.74;99720.84;5046063;28;20744;-74
2022/07/10 10:35:43;;;;;;;4.80;3.67;;;;;;;29.71;48.95;99721.06;5010214;28;20235;-74
2022/07/10 10:38:10;;;;;;;3.47;3.20;;;;;;;29.61;49.27;99727.16;4994726;28;20238;-74
2022/07/10 10:40:37;;;;;;;4.53;2.60;;;;;;;29.84;49.81;99716.59;5046769;28;20211;-74
2022/07/10 10:43:20;;;;;;;2.97;2.78;;;;;;;29.42;48.82;99715.03;5046843;28;20678;-77
2022/07/10 10:45:48;;;;;;;3.00;2.80;;;;;;;29.66;50.41;99714.31;5027604;28;20223;-75
2022/07/10 10:48:17;;;;;;;2.95;2.85;;;;;;;29.51;49.33;99681.47;5046483;28;20203;-76
2022/07/10 10:50:47;;;;;;;3.13;2.85;;;;;;;29.56;49.51;99698.06;5047080;28;20203;-75
2022/07/10 10:53:16;;;;;;;2.90;2.78;;;;;;;29.62;48.80;99694.09;5046589;28;20250;-74
2022/07/10 10:55:58;;;;;;;4.32;2.80;;;;;;;29.34;49.25;99671.97;5049337;28;20213;-76
2022/07/10 10:58:25;;;;;;;3.35;3.10;;;;;;;29.38;49.28;99688.63;5050600;28;20214;-75
2022/07/10 11:00:52;;;;;;;3.00;2.80;;;;;;;29.20;51.29;99682.69;5050686;28;20737;-76
2022/07/10 11:03:25;;;;;;;3.30;3.10;;;;;;;29.51;49.46;99689.50;5046326;28;20286;-74
2022/07/10 11:05:52;;;;;;;4.70;3.30;;;;;;;29.34;47.97;99666.63;5041570;28;20227;-74
2022/07/10 11:08:39;;;;;;;2.70;2.50;;;;;;;29.68;48.45;99667.78;5050167;28;20207;-76
2022/07/10 11:11:40;;;;;;;2.97;2.85;;;;;;;30.01;50.29;99668.13;5042719;28;20211;-75
2022/07/10 11:14:09;;;;;;;161.30;88.18;;;;;;;30.60;48.52;99678.16;4963602;28;21140;-75
2022/07/10 11:16:36;;;;;;;3.17;2.78;;;;;;;30.57;49.29;99660.50;5007456;28;20216;-75
2022/07/10 11:19:04;;;;;;;4.70;3.88;;;;;;;31.00;47.63;99676.06;4971086;28;20228;-75
2022/07/10 11:21:46;;;;;;;3.58;3.38;;;;;;;30.75;47.15;99674.34;4950411;28;20209;-74
2022/07/10 11:24:28;;;;;;;3.70;3.40;;;;;;;31.07;46.72;99661.25;4974180;28;20766;-74
2022/07/10 11:27:03;;;;;;;9.70;3.45;;;;;;;30.94;45.82;99664.78;5007406;28;20204;-73
2022/07/10 11:29:39;;;;;;;3.50;3.25;;;;;;;29.98;48.30;99665.66;5007573;28;20235;-76
2022/07/10 11:32:07;;;;;;;3.40;3.10;;;;;;;30.07;48.31;99656.13;5007314;28;20207;-75
2022/07/10 11:34:39;;;;;;;3.47;3.17;;;;;;;30.35;47.88;99652.31;4956027;28;20200;-76
2022/07/10 11:37:15;;;;;;;4.00;3.60;;;;;;;29.99;48.35;99646.00;5001383;28;20237;-76
2022/07/10 11:39:42;;;;;;;3.90;3.53;;;;;;;29.56;49.00;99652.63;4998910;28;20374;-75
2022/07/10 11:42:09;;;;;;;4.43;4.03;;;;;;;29.63;49.69;99653.91;4993170;28;20276;-75
2022/07/10 11:44:35;;;;;;;3.55;3.20;;;;;;;29.48;48.61;99639.81;4981591;28;20232;-74